<?xml version="1.0" encoding="UTF-8" standalone="no" ?>
<gpx xmlns="http://www.topografix.com/GPX/1/1" xmlns:xsi="http://www.w3.org/2001/XMLSchema-instance" xsi:schemaLocation="http://www.topografix.com/GPX/1/1 http://www.topografix.com/GPX/1/1/gpx.xsd" version="1.1" creator="VisuGPX - https://www.visugpx.com">
  <metadata>
    <name>Monastère de Prébayon</name>
    <desc><![CDATA[projet]]></desc>
  </metadata>
  <trk>
    <name><![CDATA[Monastère de Prébayon_2]]></name>
    <trkseg>
      <trkpt lat="44.20756" lon="5.02332">
        <ele>240.5</ele>
        <time>2020-11-26T15:02:20Z</time>
      </trkpt>
      <trkpt lat="44.20747" lon="5.02339">
        <ele>241</ele>
        <time>2020-11-26T15:02:34Z</time>
      </trkpt>
      <trkpt lat="44.2074" lon="5.02335">
        <ele>241.4</ele>
        <time>2020-11-26T15:02:39Z</time>
      </trkpt>
      <trkpt lat="44.20734" lon="5.02324">
        <ele>240.6</ele>
        <time>2020-11-26T15:02:55Z</time>
      </trkpt>
      <trkpt lat="44.20733" lon="5.02323">
        <ele>240.6</ele>
        <time>2020-11-26T15:02:56Z</time>
      </trkpt>
      <trkpt lat="44.20727" lon="5.02319">
        <ele>241</ele>
        <time>2020-11-26T15:03:01Z</time>
      </trkpt>
      <trkpt lat="44.20721" lon="5.02313">
        <ele>241</ele>
        <time>2020-11-26T15:03:08Z</time>
      </trkpt>
      <trkpt lat="44.20716" lon="5.02309">
        <ele>241.2</ele>
        <time>2020-11-26T15:03:12Z</time>
      </trkpt>
      <trkpt lat="44.20715" lon="5.02306">
        <ele>240.8</ele>
        <time>2020-11-26T15:03:14Z</time>
      </trkpt>
      <trkpt lat="44.20703" lon="5.02292">
        <ele>240.1</ele>
        <time>2020-11-26T15:03:27Z</time>
      </trkpt>
      <trkpt lat="44.20702" lon="5.02284">
        <ele>238.7</ele>
        <time>2020-11-26T15:03:37Z</time>
      </trkpt>
      <trkpt lat="44.20702" lon="5.02283">
        <ele>238.5</ele>
        <time>2020-11-26T15:03:38Z</time>
      </trkpt>
      <trkpt lat="44.20701" lon="5.02282">
        <ele>238.5</ele>
        <time>2020-11-26T15:03:39Z</time>
      </trkpt>
      <trkpt lat="44.20697" lon="5.02284">
        <ele>239.4</ele>
        <time>2020-11-26T15:03:46Z</time>
      </trkpt>
      <trkpt lat="44.20694" lon="5.02281">
        <ele>239.3</ele>
        <time>2020-11-26T15:03:50Z</time>
      </trkpt>
      <trkpt lat="44.20691" lon="5.02279">
        <ele>239.3</ele>
        <time>2020-11-26T15:03:56Z</time>
      </trkpt>
      <trkpt lat="44.20691" lon="5.02277">
        <ele>238.9</ele>
        <time>2020-11-26T15:03:57Z</time>
      </trkpt>
      <trkpt lat="44.20684" lon="5.02271">
        <ele>238.5</ele>
        <time>2020-11-26T15:04:07Z</time>
      </trkpt>
      <trkpt lat="44.20683" lon="5.02271">
        <ele>238.7</ele>
        <time>2020-11-26T15:04:08Z</time>
      </trkpt>
      <trkpt lat="44.20678" lon="5.02265">
        <ele>238</ele>
        <time>2020-11-26T15:04:13Z</time>
      </trkpt>
      <trkpt lat="44.20677" lon="5.02264">
        <ele>237.9</ele>
        <time>2020-11-26T15:04:14Z</time>
      </trkpt>
      <trkpt lat="44.20677" lon="5.02262">
        <ele>237.5</ele>
        <time>2020-11-26T15:04:15Z</time>
      </trkpt>
      <trkpt lat="44.20674" lon="5.02264">
        <ele>238.3</ele>
        <time>2020-11-26T15:04:16Z</time>
      </trkpt>
      <trkpt lat="44.20673" lon="5.02262">
        <ele>238</ele>
        <time>2020-11-26T15:04:17Z</time>
      </trkpt>
      <trkpt lat="44.20672" lon="5.02262">
        <ele>238.1</ele>
        <time>2020-11-26T15:04:18Z</time>
      </trkpt>
      <trkpt lat="44.20672" lon="5.02261">
        <ele>237.9</ele>
        <time>2020-11-26T15:04:19Z</time>
      </trkpt>
      <trkpt lat="44.20672" lon="5.02261">
        <ele>237.9</ele>
        <time>2020-11-26T15:04:20Z</time>
      </trkpt>
      <trkpt lat="44.20672" lon="5.02259">
        <ele>237.4</ele>
        <time>2020-11-26T15:04:21Z</time>
      </trkpt>
      <trkpt lat="44.20673" lon="5.02262">
        <ele>238</ele>
        <time>2020-11-26T15:04:39Z</time>
      </trkpt>
      <trkpt lat="44.20673" lon="5.02265">
        <ele>238.6</ele>
        <time>2020-11-26T15:04:43Z</time>
      </trkpt>
    </trkseg>
  </trk>
</gpx>